sensor_id;sensor_type;location;lat;lon;timestamp;P1;durP1;ratioP1;P2;durP2;ratioP2
51216;SDS011;37283;49.760;8.648;2023-07-31T00:02:17;5.13;;;1.98;;
51216;SDS011;37283;49.760;8.648;2023-07-31T00:04:43;6.53;;;1.50;;
51216;SDS011;37283;49.760;8.648;2023-07-31T00:07:10;4.75;;;1.92;;
51216;SDS011;37283;49.760;8.648;2023-07-31T00:09:37;4.68;;;1.77;;
51216;SDS011;37283;49.760;8.648;2023-07-31T00:12:04;5.18;;;1.70;;
51216;SDS011;37283;49.760;8.648;2023-07-31T00:14:30;4.75;;;1.80;;
51216;SDS011;37283;49.760;8.648;2023-07-31T00:16:57;6.45;;;2.05;;
51216;SDS011;37283;49.760;8.648;2023-07-31T00:19:24;4.72;;;1.80;;
51216;SDS011;37283;49.760;8.648;2023-07-31T00:21:50;3.00;;;1.67;;
51216;SDS011;37283;49.760;8.648;2023-07-31T00:24:17;6.20;;;1.67;;
51216;SDS011;37283;49.760;8.648;2023-07-31T00:26:44;7.47;;;2.00;;
51216;SDS011;37283;49.760;8.648;2023-07-31T00:29:13;5.72;;;2.00;;
51216;SDS011;37283;49.760;8.648;2023-07-31T00:31:40;4.18;;;1.75;;
51216;SDS011;37283;49.760;8.648;2023-07-31T00:34:07;5.85;;;2.40;;
51216;SDS011;37283;49.760;8.648;2023-07-31T00:36:37;5.85;;;2.05;;
51216;SDS011;37283;49.760;8.648;2023-07-31T00:39:04;6.63;;;2.05;;
51216;SDS011;37283;49.760;8.648;2023-07-31T00:41:31;3.95;;;1.90;;
51216;SDS011;37283;49.760;8.648;2023-07-31T00:43:57;7.75;;;2.13;;
51216;SDS011;37283;49.760;8.648;2023-07-31T00:46:24;4.90;;;1.85;;
51216;SDS011;37283;49.760;8.648;2023-07-31T00:48:50;3.72;;;1.65;;
51216;SDS011;37283;49.760;8.648;2023-07-31T00:51:20;6.18;;;2.00;;
51216;SDS011;37283;49.760;8.648;2023-07-31T00:53:46;5.32;;;2.00;;
51216;SDS011;37283;49.760;8.648;2023-07-31T00:56:13;7.63;;;2.10;;
51216;SDS011;37283;49.760;8.648;2023-07-31T00:58:40;6.65;;;2.10;;
51216;SDS011;37283;49.760;8.648;2023-07-31T01:01:07;8.25;;;2.20;;
51216;SDS011;37283;49.760;8.648;2023-07-31T01:03:34;4.60;;;2.20;;
51216;SDS011;37283;49.760;8.648;2023-07-31T01:06:04;5.30;;;1.90;;
51216;SDS011;37283;49.760;8.648;2023-07-31T01:08:51;4.40;;;2.10;;
51216;SDS011;37283;49.760;8.648;2023-07-31T01:11:25;6.20;;;1.88;;
51216;SDS011;37283;49.760;8.648;2023-07-31T01:13:54;4.43;;;1.73;;
51216;SDS011;37283;49.760;8.648;2023-07-31T01:16:21;4.65;;;2.13;;
51216;SDS011;37283;49.760;8.648;2023-07-31T01:18:48;7.65;;;2.20;;
51216;SDS011;37283;49.760;8.648;2023-07-31T01:24:08;5.43;;;2.10;;
51216;SDS011;37283;49.760;8.648;2023-07-31T01:26:57;7.13;;;2.10;;
51216;SDS011;37283;49.760;8.648;2023-07-31T01:29:34;6.78;;;2.30;;
51216;SDS011;37283;49.760;8.648;2023-07-31T01:32:09;5.50;;;2.10;;
51216;SDS011;37283;49.760;8.648;2023-07-31T01:34:37;6.03;;;1.98;;
51216;SDS011;37283;49.760;8.648;2023-07-31T01:37:05;6.20;;;2.20;;
51216;SDS011;37283;49.760;8.648;2023-07-31T01:39:31;7.03;;;2.30;;
51216;SDS011;37283;49.760;8.648;2023-07-31T01:41:58;6.72;;;2.45;;
51216;SDS011;37283;49.760;8.648;2023-07-31T01:44:25;6.95;;;2.30;;
51216;SDS011;37283;49.760;8.648;2023-07-31T01:46:51;5.50;;;2.22;;
51216;SDS011;37283;49.760;8.648;2023-07-31T01:49:19;8.13;;;2.08;;
51216;SDS011;37283;49.760;8.648;2023-07-31T01:51:45;7.25;;;2.67;;
51216;SDS011;37283;49.760;8.648;2023-07-31T01:54:12;5.40;;;2.13;;
51216;SDS011;37283;49.760;8.648;2023-07-31T01:56:38;5.65;;;2.60;;
51216;SDS011;37283;49.760;8.648;2023-07-31T01:59:06;4.95;;;2.25;;
51216;SDS011;37283;49.760;8.648;2023-07-31T02:01:32;6.97;;;2.40;;
51216;SDS011;37283;49.760;8.648;2023-07-31T02:03:59;5.05;;;2.00;;
51216;SDS011;37283;49.760;8.648;2023-07-31T02:06:26;6.85;;;2.22;;
51216;SDS011;37283;49.760;8.648;2023-07-31T02:08:53;6.18;;;2.22;;
51216;SDS011;37283;49.760;8.648;2023-07-31T02:11:20;5.43;;;2.30;;
51216;SDS011;37283;49.760;8.648;2023-07-31T02:13:48;5.35;;;2.08;;
51216;SDS011;37283;49.760;8.648;2023-07-31T02:16:15;9.15;;;2.35;;
51216;SDS011;37283;49.760;8.648;2023-07-31T02:18:41;6.60;;;2.55;;
51216;SDS011;37283;49.760;8.648;2023-07-31T02:21:08;7.57;;;2.40;;
51216;SDS011;37283;49.760;8.648;2023-07-31T02:23:35;8.52;;;2.60;;
51216;SDS011;37283;49.760;8.648;2023-07-31T02:26:01;8.18;;;2.45;;
51216;SDS011;37283;49.760;8.648;2023-07-31T02:28:28;6.50;;;2.20;;
51216;SDS011;37283;49.760;8.648;2023-07-31T02:30:56;7.13;;;2.40;;
51216;SDS011;37283;49.760;8.648;2023-07-31T02:33:22;6.28;;;2.33;;
51216;SDS011;37283;49.760;8.648;2023-07-31T02:35:49;6.53;;;2.40;;
51216;SDS011;37283;49.760;8.648;2023-07-31T02:38:16;5.68;;;2.63;;
51216;SDS011;37283;49.760;8.648;2023-07-31T02:40:43;9.25;;;2.38;;
51216;SDS011;37283;49.760;8.648;2023-07-31T02:43:13;4.30;;;2.10;;
51216;SDS011;37283;49.760;8.648;2023-07-31T02:45:39;4.82;;;2.17;;
51216;SDS011;37283;49.760;8.648;2023-07-31T02:48:06;5.30;;;2.45;;
51216;SDS011;37283;49.760;8.648;2023-07-31T02:50:33;6.05;;;2.08;;
51216;SDS011;37283;49.760;8.648;2023-07-31T02:53:00;5.40;;;2.25;;
51216;SDS011;37283;49.760;8.648;2023-07-31T02:55:28;5.30;;;2.10;;
51216;SDS011;37283;49.760;8.648;2023-07-31T02:57:55;4.90;;;2.25;;
51216;SDS011;37283;49.760;8.648;2023-07-31T03:00:21;6.68;;;2.50;;
51216;SDS011;37283;49.760;8.648;2023-07-31T03:02:48;6.05;;;2.22;;
51216;SDS011;37283;49.760;8.648;2023-07-31T03:05:15;8.13;;;2.65;;
51216;SDS011;37283;49.760;8.648;2023-07-31T03:07:41;5.47;;;2.70;;
51216;SDS011;37283;49.760;8.648;2023-07-31T03:10:08;6.38;;;2.38;;
51216;SDS011;37283;49.760;8.648;2023-07-31T03:12:35;8.55;;;2.65;;
51216;SDS011;37283;49.760;8.648;2023-07-31T03:15:02;7.38;;;3.00;;
51216;SDS011;37283;49.760;8.648;2023-07-31T03:17:29;6.43;;;2.10;;
51216;SDS011;37283;49.760;8.648;2023-07-31T03:19:55;5.88;;;2.80;;
51216;SDS011;37283;49.760;8.648;2023-07-31T03:22:22;6.55;;;2.20;;
51216;SDS011;37283;49.760;8.648;2023-07-31T03:24:50;7.38;;;2.78;;
51216;SDS011;37283;49.760;8.648;2023-07-31T03:27:16;6.63;;;2.50;;
51216;SDS011;37283;49.760;8.648;2023-07-31T03:29:43;6.07;;;2.85;;
51216;SDS011;37283;49.760;8.648;2023-07-31T03:32:10;7.07;;;2.38;;
51216;SDS011;37283;49.760;8.648;2023-07-31T03:34:37;7.00;;;2.80;;
51216;SDS011;37283;49.760;8.648;2023-07-31T03:37:04;6.15;;;2.47;;
51216;SDS011;37283;49.760;8.648;2023-07-31T03:39:32;6.72;;;2.60;;
51216;SDS011;37283;49.760;8.648;2023-07-31T03:41:59;6.65;;;2.60;;
51216;SDS011;37283;49.760;8.648;2023-07-31T03:44:28;5.00;;;2.30;;
51216;SDS011;37283;49.760;8.648;2023-07-31T03:46:54;7.40;;;2.88;;
51216;SDS011;37283;49.760;8.648;2023-07-31T03:49:21;6.72;;;2.38;;
51216;SDS011;37283;49.760;8.648;2023-07-31T03:51:48;4.65;;;2.38;;
51216;SDS011;37283;49.760;8.648;2023-07-31T03:54:14;5.13;;;2.20;;
51216;SDS011;37283;49.760;8.648;2023-07-31T03:56:41;5.00;;;2.70;;
51216;SDS011;37283;49.760;8.648;2023-07-31T03:59:08;9.18;;;2.30;;
51216;SDS011;37283;49.760;8.648;2023-07-31T04:01:35;5.85;;;2.55;;
51216;SDS011;37283;49.760;8.648;2023-07-31T04:04:02;7.15;;;2.55;;
51216;SDS011;37283;49.760;8.648;2023-07-31T04:06:29;6.55;;;2.58;;
51216;SDS011;37283;49.760;8.648;2023-07-31T04:08:55;7.18;;;2.63;;
51216;SDS011;37283;49.760;8.648;2023-07-31T04:11:22;7.45;;;2.65;;
51216;SDS011;37283;49.760;8.648;2023-07-31T04:13:49;6.20;;;2.58;;
51216;SDS011;37283;49.760;8.648;2023-07-31T04:16:15;6.65;;;2.50;;
51216;SDS011;37283;49.760;8.648;2023-07-31T04:18:42;5.97;;;2.65;;
51216;SDS011;37283;49.760;8.648;2023-07-31T04:21:08;8.00;;;2.50;;
51216;SDS011;37283;49.760;8.648;2023-07-31T04:23:36;7.63;;;2.75;;
51216;SDS011;37283;49.760;8.648;2023-07-31T04:26:02;6.72;;;2.58;;
51216;SDS011;37283;49.760;8.648;2023-07-31T04:28:29;7.22;;;2.42;;
51216;SDS011;37283;49.760;8.648;2023-07-31T04:30:58;4.97;;;2.28;;
51216;SDS011;37283;49.760;8.648;2023-07-31T04:33:25;5.55;;;2.28;;
51216;SDS011;37283;49.760;8.648;2023-07-31T04:35:52;7.65;;;2.80;;
51216;SDS011;37283;49.760;8.648;2023-07-31T04:38:21;6.90;;;2.70;;
51216;SDS011;37283;49.760;8.648;2023-07-31T04:40:48;6.35;;;2.70;;
51216;SDS011;37283;49.760;8.648;2023-07-31T04:43:15;5.82;;;2.42;;
51216;SDS011;37283;49.760;8.648;2023-07-31T04:45:42;5.68;;;2.55;;
51216;SDS011;37283;49.760;8.648;2023-07-31T04:48:11;6.15;;;2.85;;
51216;SDS011;37283;49.760;8.648;2023-07-31T04:50:37;5.85;;;2.70;;
51216;SDS011;37283;49.760;8.648;2023-07-31T04:53:04;5.63;;;2.67;;
51216;SDS011;37283;49.760;8.648;2023-07-31T04:55:31;6.75;;;2.58;;
51216;SDS011;37283;49.760;8.648;2023-07-31T04:57:58;8.32;;;2.65;;
51216;SDS011;37283;49.760;8.648;2023-07-31T05:00:25;8.70;;;2.63;;
51216;SDS011;37283;49.760;8.648;2023-07-31T05:02:51;6.93;;;2.67;;
51216;SDS011;37283;49.760;8.648;2023-07-31T05:05:18;7.88;;;3.03;;
51216;SDS011;37283;49.760;8.648;2023-07-31T05:07:45;6.40;;;2.80;;
51216;SDS011;37283;49.760;8.648;2023-07-31T05:10:11;5.25;;;2.53;;
51216;SDS011;37283;49.760;8.648;2023-07-31T05:12:38;6.38;;;2.50;;
51216;SDS011;37283;49.760;8.648;2023-07-31T05:15:04;6.35;;;2.53;;
51216;SDS011;37283;49.760;8.648;2023-07-31T05:17:31;5.10;;;2.45;;
51216;SDS011;37283;49.760;8.648;2023-07-31T05:19:58;7.57;;;2.70;;
51216;SDS011;37283;49.760;8.648;2023-07-31T05:22:24;7.22;;;2.58;;
51216;SDS011;37283;49.760;8.648;2023-07-31T05:24:51;6.50;;;2.70;;
51216;SDS011;37283;49.760;8.648;2023-07-31T05:27:20;6.80;;;3.17;;
51216;SDS011;37283;49.760;8.648;2023-07-31T05:29:46;5.65;;;2.65;;
51216;SDS011;37283;49.760;8.648;2023-07-31T05:32:13;6.75;;;2.80;;
51216;SDS011;37283;49.760;8.648;2023-07-31T05:34:40;5.68;;;2.85;;
51216;SDS011;37283;49.760;8.648;2023-07-31T05:37:06;10.75;;;3.10;;
51216;SDS011;37283;49.760;8.648;2023-07-31T05:39:33;7.22;;;2.88;;
51216;SDS011;37283;49.760;8.648;2023-07-31T05:42:00;6.10;;;2.70;;
51216;SDS011;37283;49.760;8.648;2023-07-31T05:44:26;5.90;;;2.63;;
51216;SDS011;37283;49.760;8.648;2023-07-31T05:46:52;6.82;;;2.65;;
51216;SDS011;37283;49.760;8.648;2023-07-31T05:49:19;8.38;;;3.00;;
51216;SDS011;37283;49.760;8.648;2023-07-31T05:51:45;5.30;;;2.38;;
51216;SDS011;37283;49.760;8.648;2023-07-31T05:54:12;6.03;;;2.83;;
51216;SDS011;37283;49.760;8.648;2023-07-31T05:56:39;5.03;;;2.58;;
51216;SDS011;37283;49.760;8.648;2023-07-31T05:59:06;9.55;;;2.95;;
51216;SDS011;37283;49.760;8.648;2023-07-31T06:01:34;6.25;;;2.78;;
51216;SDS011;37283;49.760;8.648;2023-07-31T06:04:01;8.25;;;2.53;;
51216;SDS011;37283;49.760;8.648;2023-07-31T06:06:29;5.47;;;2.60;;
51216;SDS011;37283;49.760;8.648;2023-07-31T06:08:56;7.15;;;2.45;;
51216;SDS011;37283;49.760;8.648;2023-07-31T06:11:23;6.97;;;2.60;;
51216;SDS011;37283;49.760;8.648;2023-07-31T06:13:49;7.57;;;2.88;;
51216;SDS011;37283;49.760;8.648;2023-07-31T06:16:16;9.57;;;2.60;;
51216;SDS011;37283;49.760;8.648;2023-07-31T06:18:43;5.60;;;2.50;;
51216;SDS011;37283;49.760;8.648;2023-07-31T06:21:10;7.20;;;2.55;;
51216;SDS011;37283;49.760;8.648;2023-07-31T06:23:37;5.75;;;2.65;;
51216;SDS011;37283;49.760;8.648;2023-07-31T06:26:03;6.95;;;2.72;;
51216;SDS011;37283;49.760;8.648;2023-07-31T06:28:30;5.72;;;2.60;;
51216;SDS011;37283;49.760;8.648;2023-07-31T06:30:58;5.88;;;2.65;;
51216;SDS011;37283;49.760;8.648;2023-07-31T06:33:25;6.72;;;2.88;;
51216;SDS011;37283;49.760;8.648;2023-07-31T06:35:51;7.22;;;2.97;;
51216;SDS011;37283;49.760;8.648;2023-07-31T06:38:21;5.82;;;2.35;;
51216;SDS011;37283;49.760;8.648;2023-07-31T06:40:48;7.20;;;2.33;;
51216;SDS011;37283;49.760;8.648;2023-07-31T06:43:15;7.32;;;2.47;;
51216;SDS011;37283;49.760;8.648;2023-07-31T06:45:42;11.70;;;2.75;;
51216;SDS011;37283;49.760;8.648;2023-07-31T06:48:08;5.10;;;2.47;;
51216;SDS011;37283;49.760;8.648;2023-07-31T06:50:36;5.65;;;2.63;;
51216;SDS011;37283;49.760;8.648;2023-07-31T06:53:03;5.22;;;2.60;;
51216;SDS011;37283;49.760;8.648;2023-07-31T06:55:29;8.48;;;2.80;;
51216;SDS011;37283;49.760;8.648;2023-07-31T06:57:56;11.35;;;3.15;;
51216;SDS011;37283;49.760;8.648;2023-07-31T07:00:23;6.82;;;2.90;;
51216;SDS011;37283;49.760;8.648;2023-07-31T07:02:50;7.25;;;2.65;;
51216;SDS011;37283;49.760;8.648;2023-07-31T07:05:17;5.53;;;2.58;;
51216;SDS011;37283;49.760;8.648;2023-07-31T07:07:44;5.32;;;2.35;;
51216;SDS011;37283;49.760;8.648;2023-07-31T07:10:11;5.88;;;2.42;;
51216;SDS011;37283;49.760;8.648;2023-07-31T07:12:37;7.80;;;2.65;;
51216;SDS011;37283;49.760;8.648;2023-07-31T07:15:04;9.25;;;2.90;;
51216;SDS011;37283;49.760;8.648;2023-07-31T07:17:31;9.05;;;3.22;;
51216;SDS011;37283;49.760;8.648;2023-07-31T07:19:58;7.72;;;3.00;;
51216;SDS011;37283;49.760;8.648;2023-07-31T07:22:25;8.80;;;2.70;;
51216;SDS011;37283;49.760;8.648;2023-07-31T07:24:53;7.43;;;2.47;;
51216;SDS011;37283;49.760;8.648;2023-07-31T07:27:20;4.30;;;2.30;;
51216;SDS011;37283;49.760;8.648;2023-07-31T07:29:47;4.63;;;2.53;;
51216;SDS011;37283;49.760;8.648;2023-07-31T07:32:16;7.43;;;2.60;;
51216;SDS011;37283;49.760;8.648;2023-07-31T07:34:44;7.80;;;2.55;;
51216;SDS011;37283;49.760;8.648;2023-07-31T07:37:11;9.27;;;2.55;;
51216;SDS011;37283;49.760;8.648;2023-07-31T07:39:37;4.75;;;2.58;;
51216;SDS011;37283;49.760;8.648;2023-07-31T07:42:04;5.47;;;2.53;;
51216;SDS011;37283;49.760;8.648;2023-07-31T07:44:31;6.35;;;2.80;;
51216;SDS011;37283;49.760;8.648;2023-07-31T07:46:58;7.85;;;2.60;;
51216;SDS011;37283;49.760;8.648;2023-07-31T07:49:25;9.95;;;3.15;;
51216;SDS011;37283;49.760;8.648;2023-07-31T07:51:51;4.95;;;2.65;;
51216;SDS011;37283;49.760;8.648;2023-07-31T07:54:18;7.25;;;3.03;;
51216;SDS011;37283;49.760;8.648;2023-07-31T07:56:47;6.97;;;2.83;;
51216;SDS011;37283;49.760;8.648;2023-07-31T07:59:13;7.28;;;2.40;;
51216;SDS011;37283;49.760;8.648;2023-07-31T08:01:40;8.10;;;2.70;;
51216;SDS011;37283;49.760;8.648;2023-07-31T08:04:06;6.50;;;2.85;;
51216;SDS011;37283;49.760;8.648;2023-07-31T08:06:34;6.20;;;2.25;;
51216;SDS011;37283;49.760;8.648;2023-07-31T08:09:00;5.18;;;2.50;;
51216;SDS011;37283;49.760;8.648;2023-07-31T08:11:32;5.65;;;2.58;;
51216;SDS011;37283;49.760;8.648;2023-07-31T08:13:59;6.15;;;2.78;;
51216;SDS011;37283;49.760;8.648;2023-07-31T08:16:26;7.70;;;2.63;;
51216;SDS011;37283;49.760;8.648;2023-07-31T08:18:52;6.20;;;2.70;;
51216;SDS011;37283;49.760;8.648;2023-07-31T08:21:19;5.50;;;2.70;;
51216;SDS011;37283;49.760;8.648;2023-07-31T08:23:46;5.80;;;2.20;;
51216;SDS011;37283;49.760;8.648;2023-07-31T08:26:16;5.60;;;2.58;;
51216;SDS011;37283;49.760;8.648;2023-07-31T08:28:43;4.75;;;2.50;;
51216;SDS011;37283;49.760;8.648;2023-07-31T08:31:10;5.30;;;2.30;;
51216;SDS011;37283;49.760;8.648;2023-07-31T08:33:37;7.47;;;2.95;;
51216;SDS011;37283;49.760;8.648;2023-07-31T08:36:04;7.38;;;2.85;;
51216;SDS011;37283;49.760;8.648;2023-07-31T08:38:31;6.78;;;2.45;;
51216;SDS011;37283;49.760;8.648;2023-07-31T08:40:58;5.25;;;2.50;;
51216;SDS011;37283;49.760;8.648;2023-07-31T08:43:27;5.72;;;2.72;;
51216;SDS011;37283;49.760;8.648;2023-07-31T08:45:54;3.78;;;2.28;;
51216;SDS011;37283;49.760;8.648;2023-07-31T08:48:22;5.60;;;2.55;;
51216;SDS011;37283;49.760;8.648;2023-07-31T08:50:51;6.78;;;2.78;;
51216;SDS011;37283;49.760;8.648;2023-07-31T08:53:18;6.00;;;2.37;;
51216;SDS011;37283;49.760;8.648;2023-07-31T08:55:45;5.95;;;2.42;;
51216;SDS011;37283;49.760;8.648;2023-07-31T08:58:12;4.68;;;2.30;;
51216;SDS011;37283;49.760;8.648;2023-07-31T09:00:39;5.55;;;2.47;;
51216;SDS011;37283;49.760;8.648;2023-07-31T09:03:12;5.65;;;2.63;;
51216;SDS011;37283;49.760;8.648;2023-07-31T09:05:42;7.47;;;2.45;;
51216;SDS011;37283;49.760;8.648;2023-07-31T09:10:41;4.35;;;2.20;;
51216;SDS011;37283;49.760;8.648;2023-07-31T09:13:08;6.47;;;2.30;;
51216;SDS011;37283;49.760;8.648;2023-07-31T09:15:38;6.95;;;2.75;;
51216;SDS011;37283;49.760;8.648;2023-07-31T09:18:06;5.53;;;2.42;;
51216;SDS011;37283;49.760;8.648;2023-07-31T09:20:34;5.35;;;2.38;;
51216;SDS011;37283;49.760;8.648;2023-07-31T09:23:13;7.43;;;3.05;;
51216;SDS011;37283;49.760;8.648;2023-07-31T09:25:43;8.48;;;2.90;;
51216;SDS011;37283;49.760;8.648;2023-07-31T09:28:11;7.32;;;2.65;;
51216;SDS011;37283;49.760;8.648;2023-07-31T09:30:45;7.22;;;2.60;;
51216;SDS011;37283;49.760;8.648;2023-07-31T09:33:17;7.18;;;2.80;;
51216;SDS011;37283;49.760;8.648;2023-07-31T09:35:50;6.20;;;2.53;;
51216;SDS011;37283;49.760;8.648;2023-07-31T09:38:17;10.20;;;3.35;;
51216;SDS011;37283;49.760;8.648;2023-07-31T09:40:45;4.47;;;2.83;;
51216;SDS011;37283;49.760;8.648;2023-07-31T09:43:13;6.57;;;2.78;;
51216;SDS011;37283;49.760;8.648;2023-07-31T09:45:53;5.60;;;2.80;;
51216;SDS011;37283;49.760;8.648;2023-07-31T09:48:23;6.75;;;2.80;;
51216;SDS011;37283;49.760;8.648;2023-07-31T09:50:52;6.70;;;2.75;;
51216;SDS011;37283;49.760;8.648;2023-07-31T09:53:19;6.68;;;2.63;;
51216;SDS011;37283;49.760;8.648;2023-07-31T09:55:45;5.00;;;2.45;;
51216;SDS011;37283;49.760;8.648;2023-07-31T09:58:12;6.70;;;2.50;;
51216;SDS011;37283;49.760;8.648;2023-07-31T10:00:39;7.82;;;2.83;;
51216;SDS011;37283;49.760;8.648;2023-07-31T10:03:07;6.93;;;2.88;;
51216;SDS011;37283;49.760;8.648;2023-07-31T10:05:36;8.73;;;3.13;;
51216;SDS011;37283;49.760;8.648;2023-07-31T10:08:04;6.43;;;2.42;;
51216;SDS011;37283;49.760;8.648;2023-07-31T10:10:35;7.45;;;3.00;;
51216;SDS011;37283;49.760;8.648;2023-07-31T10:13:02;5.73;;;2.83;;
51216;SDS011;37283;49.760;8.648;2023-07-31T10:15:30;7.85;;;2.78;;
51216;SDS011;37283;49.760;8.648;2023-07-31T10:17:57;8.43;;;3.00;;
51216;SDS011;37283;49.760;8.648;2023-07-31T10:20:24;6.30;;;2.70;;
51216;SDS011;37283;49.760;8.648;2023-07-31T10:22:54;5.43;;;2.38;;
51216;SDS011;37283;49.760;8.648;2023-07-31T10:25:21;7.60;;;2.90;;
51216;SDS011;37283;49.760;8.648;2023-07-31T10:27:48;7.45;;;2.72;;
51216;SDS011;37283;49.760;8.648;2023-07-31T10:30:17;6.85;;;2.95;;
51216;SDS011;37283;49.760;8.648;2023-07-31T10:32:45;8.48;;;3.17;;
51216;SDS011;37283;49.760;8.648;2023-07-31T10:35:14;5.53;;;2.70;;
51216;SDS011;37283;49.760;8.648;2023-07-31T10:37:42;9.53;;;3.30;;
51216;SDS011;37283;49.760;8.648;2023-07-31T10:40:15;5.93;;;2.80;;
51216;SDS011;37283;49.760;8.648;2023-07-31T10:42:47;5.25;;;2.75;;
51216;SDS011;37283;49.760;8.648;2023-07-31T10:45:23;8.73;;;3.20;;
51216;SDS011;37283;49.760;8.648;2023-07-31T10:50:37;7.43;;;3.35;;
51216;SDS011;37283;49.760;8.648;2023-07-31T10:53:05;6.82;;;2.92;;
51216;SDS011;37283;49.760;8.648;2023-07-31T10:55:38;5.97;;;2.85;;
51216;SDS011;37283;49.760;8.648;2023-07-31T10:58:07;8.27;;;3.47;;
51216;SDS011;37283;49.760;8.648;2023-07-31T11:00:38;4.82;;;2.60;;
51216;SDS011;37283;49.760;8.648;2023-07-31T11:03:06;11.07;;;3.40;;
51216;SDS011;37283;49.760;8.648;2023-07-31T11:08:19;6.93;;;2.83;;
51216;SDS011;37283;49.760;8.648;2023-07-31T11:10:49;4.75;;;2.50;;
51216;SDS011;37283;49.760;8.648;2023-07-31T11:13:40;6.07;;;2.83;;
51216;SDS011;37283;49.760;8.648;2023-07-31T11:16:08;7.25;;;3.33;;
51216;SDS011;37283;49.760;8.648;2023-07-31T11:18:35;8.45;;;2.90;;
51216;SDS011;37283;49.760;8.648;2023-07-31T11:21:03;7.03;;;3.20;;
51216;SDS011;37283;49.760;8.648;2023-07-31T11:23:30;7.10;;;3.38;;
51216;SDS011;37283;49.760;8.648;2023-07-31T11:25:59;8.60;;;3.63;;
51216;SDS011;37283;49.760;8.648;2023-07-31T11:28:26;6.00;;;3.08;;
51216;SDS011;37283;49.760;8.648;2023-07-31T11:30:55;7.10;;;3.08;;
51216;SDS011;37283;49.760;8.648;2023-07-31T11:33:22;8.75;;;3.40;;
51216;SDS011;37283;49.760;8.648;2023-07-31T11:35:48;8.57;;;3.45;;
51216;SDS011;37283;49.760;8.648;2023-07-31T11:38:25;6.13;;;3.30;;
51216;SDS011;37283;49.760;8.648;2023-07-31T11:40:58;6.65;;;3.13;;
51216;SDS011;37283;49.760;8.648;2023-07-31T11:43:25;6.90;;;3.15;;
51216;SDS011;37283;49.760;8.648;2023-07-31T11:45:55;7.75;;;3.78;;
51216;SDS011;37283;49.760;8.648;2023-07-31T11:48:26;5.53;;;2.83;;
51216;SDS011;37283;49.760;8.648;2023-07-31T11:51:03;7.72;;;3.30;;
51216;SDS011;37283;49.760;8.648;2023-07-31T11:53:33;5.78;;;3.35;;
51216;SDS011;37283;49.760;8.648;2023-07-31T11:56:02;7.38;;;3.33;;
51216;SDS011;37283;49.760;8.648;2023-07-31T11:58:35;5.95;;;3.20;;
51216;SDS011;37283;49.760;8.648;2023-07-31T12:01:02;7.07;;;3.45;;
51216;SDS011;37283;49.760;8.648;2023-07-31T12:03:29;7.35;;;3.30;;
51216;SDS011;37283;49.760;8.648;2023-07-31T12:05:56;6.82;;;3.17;;
51216;SDS011;37283;49.760;8.648;2023-07-31T12:08:23;8.38;;;3.33;;
51216;SDS011;37283;49.760;8.648;2023-07-31T12:10:50;5.15;;;3.13;;
51216;SDS011;37283;49.760;8.648;2023-07-31T12:13:24;9.52;;;3.15;;
51216;SDS011;37283;49.760;8.648;2023-07-31T12:15:54;6.22;;;3.08;;
51216;SDS011;37283;49.760;8.648;2023-07-31T12:18:23;5.15;;;3.13;;
51216;SDS011;37283;49.760;8.648;2023-07-31T12:20:58;6.43;;;2.90;;
51216;SDS011;37283;49.760;8.648;2023-07-31T12:23:26;6.85;;;3.50;;
51216;SDS011;37283;49.760;8.648;2023-07-31T12:26:00;6.72;;;2.92;;
51216;SDS011;37283;49.760;8.648;2023-07-31T12:31:10;5.72;;;3.17;;
51216;SDS011;37283;49.760;8.648;2023-07-31T12:33:38;6.95;;;2.92;;
51216;SDS011;37283;49.760;8.648;2023-07-31T12:36:07;5.65;;;2.90;;
51216;SDS011;37283;49.760;8.648;2023-07-31T12:38:35;7.25;;;2.97;;
51216;SDS011;37283;49.760;8.648;2023-07-31T12:41:02;5.82;;;3.15;;
51216;SDS011;37283;49.760;8.648;2023-07-31T12:43:28;6.72;;;3.35;;
51216;SDS011;37283;49.760;8.648;2023-07-31T12:45:55;6.90;;;3.05;;
51216;SDS011;37283;49.760;8.648;2023-07-31T12:48:23;5.68;;;2.75;;
51216;SDS011;37283;49.760;8.648;2023-07-31T12:50:49;6.28;;;2.80;;
51216;SDS011;37283;49.760;8.648;2023-07-31T12:53:16;4.85;;;2.75;;
51216;SDS011;37283;49.760;8.648;2023-07-31T12:55:42;6.00;;;2.70;;
51216;SDS011;37283;49.760;8.648;2023-07-31T12:58:09;6.88;;;2.63;;
51216;SDS011;37283;49.760;8.648;2023-07-31T13:00:36;5.50;;;2.90;;
51216;SDS011;37283;49.760;8.648;2023-07-31T13:03:03;5.38;;;2.38;;
51216;SDS011;37283;49.760;8.648;2023-07-31T13:05:30;4.68;;;2.47;;
51216;SDS011;37283;49.760;8.648;2023-07-31T13:07:56;7.70;;;2.70;;
51216;SDS011;37283;49.760;8.648;2023-07-31T13:10:23;6.90;;;2.78;;
51216;SDS011;37283;49.760;8.648;2023-07-31T13:12:50;7.63;;;2.60;;
51216;SDS011;37283;49.760;8.648;2023-07-31T13:15:17;5.90;;;2.70;;
51216;SDS011;37283;49.760;8.648;2023-07-31T13:17:43;6.00;;;2.70;;
51216;SDS011;37283;49.760;8.648;2023-07-31T13:20:10;5.85;;;2.72;;
51216;SDS011;37283;49.760;8.648;2023-07-31T13:22:37;5.95;;;2.88;;
51216;SDS011;37283;49.760;8.648;2023-07-31T13:25:04;7.35;;;3.10;;
51216;SDS011;37283;49.760;8.648;2023-07-31T13:27:31;5.35;;;2.78;;
51216;SDS011;37283;49.760;8.648;2023-07-31T13:29:58;5.25;;;2.85;;
51216;SDS011;37283;49.760;8.648;2023-07-31T13:32:24;5.38;;;2.70;;
51216;SDS011;37283;49.760;8.648;2023-07-31T13:34:51;5.30;;;2.58;;
51216;SDS011;37283;49.760;8.648;2023-07-31T13:37:18;7.18;;;3.05;;
51216;SDS011;37283;49.760;8.648;2023-07-31T13:39:44;4.95;;;2.50;;
51216;SDS011;37283;49.760;8.648;2023-07-31T13:42:11;7.30;;;3.00;;
51216;SDS011;37283;49.760;8.648;2023-07-31T13:44:38;6.30;;;2.55;;
51216;SDS011;37283;49.760;8.648;2023-07-31T13:47:05;7.50;;;2.75;;
51216;SDS011;37283;49.760;8.648;2023-07-31T13:49:33;4.90;;;2.95;;
51216;SDS011;37283;49.760;8.648;2023-07-31T13:52:00;5.65;;;3.30;;
51216;SDS011;37283;49.760;8.648;2023-07-31T13:54:26;4.68;;;2.50;;
51216;SDS011;37283;49.760;8.648;2023-07-31T13:56:56;5.82;;;2.63;;
51216;SDS011;37283;49.760;8.648;2023-07-31T13:59:23;7.55;;;2.83;;
51216;SDS011;37283;49.760;8.648;2023-07-31T14:01:50;6.90;;;2.80;;
51216;SDS011;37283;49.760;8.648;2023-07-31T14:04:17;5.47;;;2.58;;
51216;SDS011;37283;49.760;8.648;2023-07-31T14:09:14;7.63;;;3.00;;
51216;SDS011;37283;49.760;8.648;2023-07-31T14:11:41;7.10;;;2.70;;
51216;SDS011;37283;49.760;8.648;2023-07-31T14:14:08;5.75;;;2.78;;
51216;SDS011;37283;49.760;8.648;2023-07-31T14:16:36;7.10;;;2.45;;
51216;SDS011;37283;49.760;8.648;2023-07-31T14:19:03;5.65;;;3.13;;
51216;SDS011;37283;49.760;8.648;2023-07-31T14:21:30;4.25;;;2.70;;
51216;SDS011;37283;49.760;8.648;2023-07-31T14:23:57;7.05;;;2.80;;
51216;SDS011;37283;49.760;8.648;2023-07-31T14:26:23;5.75;;;3.00;;
51216;SDS011;37283;49.760;8.648;2023-07-31T14:28:50;4.82;;;2.80;;
51216;SDS011;37283;49.760;8.648;2023-07-31T14:31:16;5.15;;;2.70;;
51216;SDS011;37283;49.760;8.648;2023-07-31T14:33:43;5.45;;;2.47;;
51216;SDS011;37283;49.760;8.648;2023-07-31T14:36:10;7.28;;;3.17;;
51216;SDS011;37283;49.760;8.648;2023-07-31T14:38:36;4.95;;;2.40;;
51216;SDS011;37283;49.760;8.648;2023-07-31T14:41:03;6.32;;;3.15;;
51216;SDS011;37283;49.760;8.648;2023-07-31T14:43:30;8.02;;;2.63;;
51216;SDS011;37283;49.760;8.648;2023-07-31T14:45:57;7.13;;;2.75;;
51216;SDS011;37283;49.760;8.648;2023-07-31T14:48:26;4.88;;;2.63;;
51216;SDS011;37283;49.760;8.648;2023-07-31T14:50:53;7.28;;;3.40;;
51216;SDS011;37283;49.760;8.648;2023-07-31T14:53:20;5.63;;;2.33;;
51216;SDS011;37283;49.760;8.648;2023-07-31T14:55:47;5.28;;;3.03;;
51216;SDS011;37283;49.760;8.648;2023-07-31T14:58:13;5.13;;;2.90;;
51216;SDS011;37283;49.760;8.648;2023-07-31T15:00:41;4.25;;;2.70;;
51216;SDS011;37283;49.760;8.648;2023-07-31T15:03:07;7.18;;;2.85;;
51216;SDS011;37283;49.760;8.648;2023-07-31T15:05:34;4.88;;;2.50;;
51216;SDS011;37283;49.760;8.648;2023-07-31T15:08:01;11.45;;;4.00;;